Buckhead, Georgia
Current Conditions -  °F | °C
As of 5:55 PM on Tuesday 21 Oct 2014 (Local Time) from K3J7 Reporting Station
Clear Clear  
Wind Chill: 75°   Ceiling: Unl
Heat Index: 75°   Visibility: 10mi
Dew Point: 52°   Wind: 7mph
Humidity: 44%   Direction: 280°W
Pressure: 29.89"   Gusts: NA
Location:  33.57°N, 83.36°W
Report Text: K3J7 212155Z AUTO 28006KT 10SM CLR 24/11 A2989 RMK AO2
Loading
Personal Weather Stations






























Interactive Weather Map
Tropical Storm Tracking
New forecast layout! Learn more

10-Day Weather Forecast

Advertisements
Track Severe Weather on mobile